createdAt,value
2023-05-10T00:01:59.966Z,1.35
2023-05-10T00:04:29.183Z,1.45
2023-05-10T00:06:58.098Z,1.50
2023-05-10T00:09:33.626Z,1.63
2023-05-10T00:12:10.555Z,1.55
2023-05-10T00:14:39.660Z,1.50
2023-05-10T00:17:13.350Z,1.35
2023-05-10T00:19:48.352Z,1.50
2023-05-10T00:22:20.300Z,1.80
2023-05-10T00:24:49.337Z,1.42
2023-05-10T00:27:29.584Z,1.33
2023-05-10T00:30:01.780Z,1.20
2023-05-10T00:32:32.304Z,1.27
2023-05-10T00:35:08.788Z,1.83
2023-05-10T00:37:40.029Z,1.23
2023-05-10T00:40:09.403Z,1.80
2023-05-10T00:42:43.988Z,1.80
2023-05-10T00:45:16.218Z,1.75
2023-05-10T00:47:48.163Z,1.48
2023-05-10T00:50:17.568Z,2.00
2023-05-10T00:52:56.409Z,1.38
2023-05-10T00:55:30.146Z,1.60
2023-05-10T00:57:59.551Z,1.38
2023-05-10T01:00:35.863Z,1.40
2023-05-10T01:03:09.845Z,1.50
2023-05-10T01:05:44.387Z,1.48
2023-05-10T01:08:18.390Z,1.33
2023-05-10T01:10:52.945Z,1.52
2023-05-10T01:13:48.974Z,1.40
2023-05-10T01:16:23.179Z,1.40
2023-05-10T01:18:56.959Z,1.50
2023-05-10T01:22:10.635Z,1.65
2023-05-10T01:24:54.235Z,1.38
2023-05-10T01:27:39.787Z,1.38
2023-05-10T01:33:38.326Z,1.65
2023-05-10T01:36:18.066Z,1.80
2023-05-10T01:38:54.942Z,1.77
2023-05-10T01:41:59.008Z,1.42
2023-05-10T01:44:40.988Z,1.70
2023-05-10T01:47:17.218Z,1.52
2023-05-10T01:49:57.810Z,1.83
2023-05-10T01:52:34.711Z,1.63
2023-05-10T01:55:15.014Z,1.90
2023-05-10T01:57:48.242Z,1.95
2023-05-10T02:00:21.836Z,1.55
2023-05-10T02:02:58.787Z,1.88
2023-05-10T02:05:37.786Z,2.15
2023-05-10T02:08:10.274Z,1.90
2023-05-10T02:10:47.807Z,1.85
2023-05-10T02:13:21.337Z,1.83
2023-05-10T02:15:54.798Z,1.80
2023-05-10T02:18:29.247Z,1.70
2023-05-10T02:21:07.535Z,1.60
2023-05-10T02:23:37.784Z,1.83
2023-05-10T02:26:10.530Z,1.95
2023-05-10T02:28:51.275Z,1.75
2023-05-10T02:31:21.542Z,1.77
2023-05-10T02:33:54.828Z,1.73
2023-05-10T02:36:34.993Z,1.83
2023-05-10T02:39:11.957Z,1.90
2023-05-10T02:41:44.385Z,1.65
2023-05-10T02:44:20.378Z,2.00
2023-05-10T02:46:52.560Z,2.00
2023-05-10T02:49:23.709Z,1.88
2023-05-10T02:51:58.904Z,1.60
2023-05-10T02:54:40.359Z,1.75
2023-05-10T02:57:18.323Z,1.70
2023-05-10T02:59:54.990Z,1.80
2023-05-10T03:02:26.619Z,1.58
2023-05-10T03:04:55.822Z,1.73
2023-05-10T03:07:33.052Z,2.20
2023-05-10T03:10:04.556Z,2.15
2023-05-10T03:13:04.448Z,1.95
2023-05-10T03:15:44.696Z,1.98
2023-05-10T03:18:49.850Z,1.73
2023-05-10T03:21:24.477Z,2.03
2023-05-10T03:24:03.186Z,1.83
2023-05-10T03:26:42.160Z,2.20
2023-05-10T03:29:25.691Z,2.33
2023-05-10T03:31:55.526Z,2.03
2023-05-10T03:34:33.078Z,2.33
2023-05-10T03:37:03.088Z,2.28
2023-05-10T03:39:42.925Z,2.35
2023-05-10T03:42:16.124Z,2.30
2023-05-10T03:44:52.359Z,2.25
2023-05-10T03:47:29.502Z,2.20
2023-05-10T03:50:02.940Z,2.67
2023-05-10T03:52:35.944Z,2.42
2023-05-10T03:55:08.367Z,2.47
2023-05-10T03:57:41.817Z,2.75
2023-05-10T04:00:20.613Z,2.50
2023-05-10T04:02:59.921Z,2.90
2023-05-10T04:05:29.472Z,2.80
2023-05-10T04:07:59.368Z,2.53
2023-05-10T04:10:33.144Z,2.67
2023-05-10T04:13:13.897Z,2.70
2023-05-10T04:15:49.154Z,2.50
2023-05-10T04:18:22.563Z,2.83
2023-05-10T04:20:58.834Z,3.10
2023-05-10T04:23:29.335Z,3.17
2023-05-10T04:26:02.920Z,2.83
2023-05-10T04:28:35.095Z,3.40
2023-05-10T04:31:11.013Z,3.17
2023-05-10T04:33:42.084Z,3.25
2023-05-10T04:36:16.885Z,3.30
2023-05-10T04:38:47.085Z,2.55
2023-05-10T04:41:18.238Z,2.72
2023-05-10T04:43:47.543Z,3.22
2023-05-10T04:46:24.276Z,2.92
2023-05-10T04:48:53.040Z,2.88
2023-05-10T04:51:29.511Z,3.55
2023-05-10T04:54:06.487Z,2.83
2023-05-10T04:56:46.337Z,2.70
2023-05-10T04:59:17.854Z,2.70
2023-05-10T05:01:46.973Z,2.90
2023-05-10T05:04:18.310Z,3.08
2023-05-10T05:06:53.995Z,2.95
2023-05-10T05:09:31.108Z,3.38
2023-05-10T05:12:05.663Z,2.58
2023-05-10T05:14:34.733Z,2.83
2023-05-10T05:17:08.471Z,2.65
2023-05-10T05:19:39.751Z,3.05
2023-05-10T05:22:15.721Z,3.22
2023-05-10T05:24:47.293Z,2.90
2023-05-10T05:27:19.498Z,3.13
2023-05-10T05:29:56.772Z,2.80
2023-05-10T05:32:32.605Z,2.38
2023-05-10T05:35:05.544Z,2.30
2023-05-10T05:37:37.587Z,3.20
2023-05-10T05:40:14.051Z,2.33
2023-05-10T05:42:48.279Z,2.80
2023-05-10T05:45:20.372Z,3.17
2023-05-10T05:47:52.775Z,2.20
2023-05-10T05:50:24.512Z,2.40
2023-05-10T05:52:59.018Z,2.72
2023-05-10T05:55:35.783Z,2.58
2023-05-10T05:58:10.122Z,2.00
2023-05-10T06:00:44.549Z,2.30
2023-05-10T06:03:21.995Z,2.35
2023-05-10T06:05:53.955Z,5.00
2023-05-10T06:08:29.109Z,2.40
2023-05-10T06:11:03.654Z,2.25
2023-05-10T06:13:36.843Z,2.22
2023-05-10T06:16:15.351Z,2.92
2023-05-10T06:18:48.164Z,2.30
2023-05-10T06:21:22.668Z,2.85
2023-05-10T06:23:56.889Z,2.30
2023-05-10T06:26:31.870Z,2.40
2023-05-10T06:29:04.014Z,2.10
2023-05-10T06:31:36.471Z,2.60
2023-05-10T06:36:48.466Z,2.30
2023-05-10T06:39:20.284Z,2.63
2023-05-10T06:41:56.890Z,2.28
2023-05-10T06:44:31.158Z,2.42
2023-05-10T06:47:07.788Z,2.55
2023-05-10T06:49:47.854Z,2.38
2023-05-10T06:52:19.747Z,2.58
2023-05-10T06:54:57.342Z,2.83
2023-05-10T06:57:31.702Z,2.45
2023-05-10T07:00:08.412Z,2.78
2023-05-10T07:02:38.395Z,2.50
2023-05-10T07:05:18.245Z,2.28
2023-05-10T07:07:53.182Z,2.20
2023-05-10T07:10:28.156Z,2.25
2023-05-10T07:13:02.914Z,2.13
2023-05-10T07:15:32.604Z,2.30
2023-05-10T07:18:03.840Z,2.13
2023-05-10T07:20:37.794Z,2.22
2023-05-10T07:23:10.892Z,2.13
2023-05-10T07:25:43.888Z,2.40
2023-05-10T07:28:18.422Z,2.15
2023-05-10T07:30:50.732Z,2.20
2023-05-10T07:33:24.285Z,2.00
2023-05-10T07:36:02.231Z,2.20
2023-05-10T07:38:33.899Z,1.75
2023-05-10T07:41:09.264Z,2.40
2023-05-10T07:43:44.330Z,1.70
2023-05-10T07:46:18.250Z,2.08
2023-05-10T07:48:48.285Z,1.92
2023-05-10T07:51:18.503Z,2.28
2023-05-10T07:53:48.010Z,2.10
2023-05-10T07:56:33.835Z,1.73
2023-05-10T07:59:11.349Z,1.88
2023-05-10T08:01:45.746Z,2.13
2023-05-10T08:04:20.774Z,2.30
2023-05-10T08:06:56.275Z,1.85
2023-05-10T08:09:30.335Z,2.25
2023-05-10T08:12:04.954Z,2.20
2023-05-10T08:14:39.062Z,1.95
2023-05-10T08:17:11.699Z,2.53
2023-05-10T08:19:43.758Z,2.10
2023-05-10T08:22:15.322Z,1.95
2023-05-10T08:24:54.738Z,2.00
2023-05-10T08:27:25.989Z,1.90
2023-05-10T08:29:58.397Z,1.70
2023-05-10T08:32:32.374Z,1.83
2023-05-10T08:35:07.207Z,1.50
2023-05-10T08:37:39.046Z,1.50
2023-05-10T08:40:17.145Z,1.80
2023-05-10T08:43:10.292Z,1.40
2023-05-10T08:45:44.294Z,2.22
2023-05-10T08:48:15.230Z,1.92
2023-05-10T08:50:50.531Z,1.80
2023-05-10T08:53:28.169Z,1.85
2023-05-10T08:56:00.593Z,1.65
2023-05-10T08:58:32.650Z,2.33
2023-05-10T09:01:08.634Z,1.70
2023-05-10T09:03:47.887Z,2.30
2023-05-10T09:06:23.954Z,1.45
2023-05-10T09:08:55.199Z,2.05
2023-05-10T09:11:24.606Z,1.95
2023-05-10T09:13:57.728Z,2.10
2023-05-10T09:16:27.173Z,2.25
2023-05-10T09:19:00.878Z,1.58
2023-05-10T09:21:31.262Z,1.60
2023-05-10T09:24:08.858Z,1.92
2023-05-10T09:26:52.765Z,1.83
2023-05-10T09:29:27.002Z,2.30
2023-05-10T09:31:58.893Z,2.45
2023-05-10T09:34:32.883Z,1.90
2023-05-10T09:37:06.907Z,2.30
2023-05-10T09:39:42.889Z,2.00
2023-05-10T09:42:20.421Z,2.10
2023-05-10T09:44:54.133Z,2.55
2023-05-10T09:47:26.930Z,1.98
2023-05-10T09:50:04.317Z,2.47
2023-05-10T09:53:06.909Z,2.28
2023-05-10T09:55:51.416Z,2.20
2023-05-10T09:58:21.026Z,2.30
2023-05-10T10:00:56.142Z,2.17
2023-05-10T10:03:31.145Z,1.90
2023-05-10T10:06:02.880Z,2.00
2023-05-10T10:08:37.725Z,1.80
2023-05-10T10:11:10.139Z,1.83
2023-05-10T10:13:44.974Z,1.83
2023-05-10T10:16:15.152Z,1.65
2023-05-10T10:18:50.056Z,1.70
2023-05-10T10:21:25.985Z,1.73
2023-05-10T10:24:01.327Z,1.92
2023-05-10T10:26:39.636Z,1.83
2023-05-10T10:32:49.726Z,1.98
2023-05-10T10:35:25.931Z,1.48
2023-05-10T10:38:02.085Z,1.45
2023-05-10T10:40:35.584Z,1.50
2023-05-10T10:43:28.504Z,1.63
2023-05-10T10:46:21.009Z,1.60
2023-05-10T10:49:13.129Z,1.90
2023-05-10T10:52:16.198Z,1.45
2023-05-10T10:55:16.694Z,1.85
2023-05-10T10:58:06.054Z,1.73
2023-05-10T11:00:42.327Z,1.52
2023-05-10T11:03:16.366Z,1.67
2023-05-10T11:06:02.606Z,1.23
2023-05-10T11:08:36.880Z,1.60
2023-05-10T11:11:19.311Z,1.60
2023-05-10T11:13:52.231Z,1.33
2023-05-10T11:16:28.577Z,1.70
2023-05-10T11:19:01.577Z,1.80
2023-05-10T11:21:34.568Z,1.88
2023-05-10T11:24:18.255Z,1.45
2023-05-10T11:26:52.332Z,1.30
2023-05-10T11:29:24.855Z,1.63
2023-05-10T11:32:02.357Z,1.65
2023-05-10T11:34:37.287Z,1.73
2023-05-10T11:37:12.397Z,1.52
2023-05-10T11:39:51.665Z,1.50
2023-05-10T11:42:29.778Z,1.75
2023-05-10T11:45:05.876Z,1.65
2023-05-10T11:47:38.810Z,2.10
2023-05-10T11:50:09.753Z,1.85
2023-05-10T11:52:44.714Z,1.73
2023-05-10T11:55:26.355Z,1.60
2023-05-10T11:58:04.815Z,1.67
2023-05-10T12:00:39.810Z,1.63
2023-05-10T12:03:15.174Z,1.90
2023-05-10T12:05:47.525Z,1.70
2023-05-10T12:08:22.685Z,1.70
2023-05-10T12:11:06.473Z,1.75
2023-05-10T12:13:47.873Z,1.73
2023-05-10T12:16:30.648Z,2.03
2023-05-10T12:19:02.329Z,1.85
2023-05-10T12:21:53.370Z,1.83
2023-05-10T12:27:01.725Z,1.60
2023-05-10T12:29:35.881Z,1.70
2023-05-10T12:32:10.862Z,1.77
2023-05-10T12:34:44.360Z,1.70
2023-05-10T12:37:16.881Z,1.58
2023-05-10T12:39:50.952Z,1.58
2023-05-10T12:42:26.674Z,1.63
2023-05-10T12:45:02.365Z,1.85
2023-05-10T12:47:37.829Z,1.73
2023-05-10T12:50:07.966Z,1.52
2023-05-10T12:52:41.456Z,1.52
2023-05-10T12:55:13.924Z,1.60
2023-05-10T12:57:49.497Z,1.50
2023-05-10T13:00:19.659Z,1.45
2023-05-10T13:02:54.828Z,1.42
2023-05-10T13:05:26.715Z,1.50
2023-05-10T13:08:00.917Z,1.58
2023-05-10T13:10:34.198Z,1.40
2023-05-10T13:13:10.562Z,1.42
2023-05-10T13:15:43.273Z,1.33
2023-05-10T13:18:16.128Z,1.50
2023-05-10T13:23:22.525Z,1.48
2023-05-10T13:25:54.921Z,1.30
2023-05-10T13:28:31.821Z,1.65
2023-05-10T13:31:06.617Z,1.13
2023-05-10T13:33:39.097Z,1.33
2023-05-10T13:36:08.865Z,1.90
2023-05-10T13:38:42.761Z,1.33
2023-05-10T13:41:12.608Z,1.50
2023-05-10T13:43:42.356Z,1.33
2023-05-10T13:46:12.169Z,1.60
2023-05-10T13:48:41.884Z,1.67
2023-05-10T13:51:14.321Z,1.42
2023-05-10T13:56:23.961Z,1.23
2023-05-10T13:58:58.474Z,1.20
2023-05-10T14:01:30.632Z,1.42
2023-05-10T14:04:08.629Z,1.30
2023-05-10T14:06:44.141Z,1.38
2023-05-10T14:09:16.339Z,1.25
2023-05-10T14:11:54.107Z,1.58
2023-05-10T14:14:27.296Z,1.40
2023-05-10T14:17:00.877Z,1.23
2023-05-10T14:19:36.264Z,1.30
2023-05-10T14:22:09.411Z,1.13
2023-05-10T14:24:48.364Z,1.33
2023-05-10T14:27:19.558Z,1.35
2023-05-10T14:29:49.707Z,1.35
2023-05-10T14:32:21.754Z,1.50
2023-05-10T14:34:54.073Z,1.40
2023-05-10T14:37:24.337Z,1.35
2023-05-10T14:40:02.531Z,1.30
2023-05-10T14:42:54.576Z,3.33
2023-05-10T14:45:29.334Z,2.17
2023-05-10T14:48:16.931Z,1.90
2023-05-10T14:50:51.861Z,1.63
2023-05-10T14:53:20.874Z,1.80
2023-05-10T14:55:55.124Z,1.98
2023-05-10T14:58:28.497Z,2.00
2023-05-10T15:01:03.371Z,2.10
2023-05-10T15:03:34.109Z,1.88
2023-05-10T15:06:12.413Z,1.90
2023-05-10T15:08:41.431Z,2.20
2023-05-10T15:11:12.842Z,2.08
2023-05-10T15:13:46.852Z,1.83
2023-05-10T15:16:19.514Z,2.30
2023-05-10T15:18:49.086Z,1.88
2023-05-10T15:21:20.377Z,2.20
2023-05-10T15:23:56.387Z,2.45
2023-05-10T15:26:27.827Z,2.00
2023-05-10T15:28:59.893Z,1.92
2023-05-10T15:31:29.913Z,2.15
2023-05-10T15:34:01.799Z,2.50
2023-05-10T15:36:37.043Z,2.03
2023-05-10T15:39:08.754Z,2.03
2023-05-10T15:41:47.472Z,1.90
2023-05-10T15:44:18.457Z,1.77
2023-05-10T15:46:52.159Z,1.83
2023-05-10T15:49:24.838Z,2.10
2023-05-10T15:51:57.462Z,2.03
2023-05-10T15:54:34.348Z,2.08
2023-05-10T15:57:06.569Z,1.58
2023-05-10T15:59:36.300Z,2.10
2023-05-10T16:02:12.452Z,1.60
2023-05-10T16:04:50.108Z,2.22
2023-05-10T16:07:19.751Z,1.67
2023-05-10T16:09:54.607Z,2.10
2023-05-10T16:12:29.542Z,1.85
2023-05-10T16:15:03.972Z,2.45
2023-05-10T16:17:33.450Z,2.25
2023-05-10T16:20:06.233Z,2.10
2023-05-10T16:22:37.014Z,2.22
2023-05-10T16:25:06.746Z,1.75
2023-05-10T16:27:37.243Z,2.08
2023-05-10T16:30:10.850Z,1.90
2023-05-10T16:32:40.311Z,2.03
2023-05-10T16:35:11.885Z,1.92
2023-05-10T16:37:46.073Z,2.05
2023-05-10T16:40:21.148Z,1.80
2023-05-10T16:42:52.256Z,2.40
2023-05-10T16:45:27.524Z,1.77
2023-05-10T16:47:57.020Z,2.00
2023-05-10T16:50:28.619Z,1.70
2023-05-10T16:53:00.639Z,2.30
2023-05-10T16:55:37.869Z,2.20
2023-05-10T16:58:15.108Z,2.05
2023-05-10T17:00:48.341Z,2.45
2023-05-10T17:03:22.933Z,2.22
2023-05-10T17:05:54.578Z,2.13
2023-05-10T17:08:25.319Z,1.92
2023-05-10T17:10:57.417Z,2.30
2023-05-10T17:13:30.934Z,2.50
2023-05-10T17:16:04.221Z,2.25
2023-05-10T17:18:36.297Z,2.15
2023-05-10T17:23:39.522Z,2.30
2023-05-10T17:26:13.867Z,2.20
2023-05-10T17:28:51.986Z,2.50
2023-05-10T17:31:24.424Z,2.28
2023-05-10T17:36:26.961Z,1.85
2023-05-10T17:38:58.092Z,1.88
2023-05-10T17:41:29.799Z,2.17
2023-05-10T17:44:01.840Z,2.38
2023-05-10T17:46:36.691Z,2.53
2023-05-10T17:49:10.821Z,2.45
2023-05-10T17:51:42.438Z,1.92
2023-05-10T17:54:14.798Z,2.33
2023-05-10T17:56:44.184Z,2.33
2023-05-10T17:59:17.903Z,2.00
2023-05-10T18:01:57.588Z,1.90
2023-05-10T18:04:34.860Z,2.30
2023-05-10T18:07:08.884Z,4.63
2023-05-10T18:12:13.528Z,2.05
2023-05-10T18:14:45.905Z,2.40
2023-05-10T18:17:20.356Z,2.50
2023-05-10T18:19:53.624Z,2.88
2023-05-10T18:22:28.405Z,2.70
2023-05-10T18:25:00.930Z,3.08
2023-05-10T18:27:33.335Z,3.50
2023-05-10T18:30:11.352Z,3.35
2023-05-10T18:32:44.814Z,3.35
2023-05-10T18:35:17.534Z,3.50
2023-05-10T18:37:54.422Z,3.72
2023-05-10T18:40:29.204Z,5.07
2023-05-10T18:43:03.216Z,4.57
2023-05-10T18:45:36.078Z,5.05
2023-05-10T18:50:50.619Z,4.68
2023-05-10T18:53:20.442Z,4.30
2023-05-10T18:56:03.401Z,4.93
2023-05-10T18:58:38.946Z,5.10
2023-05-10T19:01:12.667Z,5.20
2023-05-10T19:03:48.433Z,4.85
2023-05-10T19:06:27.113Z,6.32
2023-05-10T19:08:57.041Z,6.18
2023-05-10T19:11:32.622Z,6.47
2023-05-10T19:14:03.149Z,31.30
2023-05-10T19:16:38.535Z,13.45
2023-05-10T19:19:14.565Z,9.02
2023-05-10T19:21:47.974Z,8.82
2023-05-10T19:24:24.766Z,8.90
2023-05-10T19:27:02.827Z,8.80
2023-05-10T19:29:33.700Z,7.93
2023-05-10T19:32:07.362Z,8.73
2023-05-10T19:39:45.976Z,7.63
2023-05-10T19:42:18.330Z,9.50
2023-05-10T19:44:51.217Z,9.55
2023-05-10T19:47:28.737Z,9.82
2023-05-10T19:50:08.057Z,9.02
2023-05-10T19:52:40.109Z,8.02
2023-05-10T19:55:09.831Z,8.07
2023-05-10T19:57:46.610Z,8.40
2023-05-10T20:00:20.368Z,9.68
2023-05-10T20:02:54.308Z,8.00
2023-05-10T20:05:26.909Z,8.25
2023-05-10T20:08:01.784Z,8.18
2023-05-10T20:10:34.085Z,8.52
2023-05-10T20:13:04.029Z,8.95
2023-05-10T20:15:34.914Z,10.75
2023-05-10T20:18:07.774Z,9.02
2023-05-10T20:20:40.302Z,8.93
2023-05-10T20:23:11.366Z,10.50
2023-05-10T20:25:45.916Z,10.23
2023-05-10T20:28:27.292Z,9.00
2023-05-10T20:30:57.282Z,8.20
2023-05-10T20:33:32.565Z,8.80
2023-05-10T20:36:10.048Z,9.20
2023-05-10T20:38:39.066Z,7.60
2023-05-10T20:41:14.856Z,8.25
2023-05-10T20:43:44.353Z,8.27
2023-05-10T20:46:18.679Z,9.10
2023-05-10T20:48:51.049Z,8.98
2023-05-10T20:51:20.345Z,7.50
2023-05-10T20:53:49.376Z,8.40
2023-05-10T20:56:22.240Z,7.05
2023-05-10T20:58:51.517Z,7.20
2023-05-10T21:01:21.910Z,7.32
2023-05-10T21:03:51.039Z,6.85
2023-05-10T21:06:25.737Z,7.55
2023-05-10T21:09:02.339Z,7.18
2023-05-10T21:11:38.935Z,7.18
2023-05-10T21:14:11.144Z,6.63
2023-05-10T21:16:45.499Z,7.18
2023-05-10T21:19:14.706Z,6.47
2023-05-10T21:21:44.415Z,6.30
2023-05-10T21:24:13.568Z,6.63
2023-05-10T21:26:42.953Z,5.93
2023-05-10T21:29:16.649Z,6.90
2023-05-10T21:31:45.656Z,6.35
2023-05-10T21:34:16.352Z,6.38
2023-05-10T21:36:55.210Z,6.68
2023-05-10T21:39:29.669Z,7.32
2023-05-10T21:42:00.945Z,7.05
2023-05-10T21:44:32.550Z,6.45
2023-05-10T21:47:07.602Z,6.82
2023-05-10T21:49:39.239Z,5.95
2023-05-10T21:52:09.103Z,6.47
2023-05-10T21:54:42.569Z,6.25
2023-05-10T21:57:13.839Z,5.45
2023-05-10T21:59:47.543Z,6.93
2023-05-10T22:02:21.169Z,6.60
2023-05-10T22:04:51.028Z,6.13
2023-05-10T22:07:24.463Z,7.30
2023-05-10T22:09:56.801Z,6.97
2023-05-10T22:12:31.342Z,6.80
2023-05-10T22:17:40.977Z,6.82
2023-05-10T22:20:15.796Z,7.05
2023-05-10T22:22:49.016Z,7.57
2023-05-10T22:25:24.273Z,7.55
2023-05-10T22:27:55.983Z,7.20
2023-05-10T22:30:24.811Z,6.90
2023-05-10T22:32:54.034Z,7.03
2023-05-10T22:35:30.560Z,7.22
2023-05-10T22:37:59.588Z,7.22
2023-05-10T22:40:35.559Z,7.20
2023-05-10T22:43:04.589Z,7.13
2023-05-10T22:45:37.943Z,7.40
2023-05-10T22:48:13.231Z,6.63
2023-05-10T22:50:45.493Z,7.60
2023-05-10T22:53:19.017Z,7.03
2023-05-10T22:55:50.330Z,6.32
2023-05-10T22:58:22.133Z,6.63
2023-05-10T23:00:53.967Z,6.55
2023-05-10T23:03:27.437Z,6.50
2023-05-10T23:05:56.123Z,6.10
2023-05-10T23:08:27.268Z,7.15
2023-05-10T23:10:56.038Z,6.13
2023-05-10T23:13:29.658Z,6.05
2023-05-10T23:16:11.247Z,5.82
2023-05-10T23:18:40.223Z,5.95
2023-05-10T23:21:12.826Z,5.55
2023-05-10T23:23:48.523Z,5.93
2023-05-10T23:26:24.506Z,5.70
2023-05-10T23:28:53.798Z,5.60
2023-05-10T23:31:25.613Z,5.72
2023-05-10T23:33:57.115Z,5.03
2023-05-10T23:36:25.656Z,4.97
2023-05-10T23:38:54.632Z,5.03
2023-05-10T23:41:30.663Z,5.13
2023-05-10T23:44:00.325Z,4.85
2023-05-10T23:46:34.645Z,5.18
2023-05-10T23:49:09.919Z,5.35
2023-05-10T23:51:42.009Z,4.78
2023-05-10T23:54:17.910Z,4.40
2023-05-10T23:56:52.003Z,4.68
2023-05-10T23:59:28.338Z,4.95
